createdAt,value
2019-05-20T00:00:55.317Z,10.12
2019-05-20T00:01:55.305Z,10.07
2019-05-20T00:02:55.287Z,10.04
2019-05-20T00:03:55.264Z,10.05
2019-05-20T00:04:55.263Z,10.07
2019-05-20T00:05:55.322Z,10.07
2019-05-20T00:06:55.236Z,10.13
2019-05-20T00:07:55.270Z,10.15
2019-05-20T00:08:55.226Z,10.16
2019-05-20T00:09:55.205Z,10.22
2019-05-20T00:10:55.210Z,10.25
2019-05-20T00:11:55.174Z,10.25
2019-05-20T00:12:55.483Z,10.28
2019-05-20T00:13:55.195Z,10.28
2019-05-20T00:14:55.148Z,10.25
2019-05-20T00:15:55.156Z,10.25
2019-05-20T00:16:55.918Z,10.23
2019-05-20T00:17:55.116Z,10.25
2019-05-20T00:18:55.110Z,10.23
2019-05-20T00:19:55.087Z,10.23
2019-05-20T00:20:55.117Z,10.22
2019-05-20T00:21:55.073Z,10.20
2019-05-20T00:22:55.053Z,10.20
2019-05-20T00:23:55.058Z,10.19
2019-05-20T00:24:55.053Z,10.19
2019-05-20T00:25:55.037Z,10.23
2019-05-20T00:26:55.048Z,10.23
2019-05-20T00:27:55.006Z,10.22
2019-05-20T00:28:54.992Z,10.20
2019-05-20T00:29:54.992Z,10.19
2019-05-20T00:30:54.977Z,10.17
2019-05-20T00:31:54.963Z,10.16
2019-05-20T00:32:54.973Z,10.15
2019-05-20T00:33:54.947Z,10.10
2019-05-20T00:34:54.982Z,10.07
2019-05-20T00:35:54.925Z,10.01
2019-05-20T00:36:54.907Z,9.98
2019-05-20T00:37:54.922Z,9.94
2019-05-20T00:38:54.895Z,9.92
2019-05-20T00:39:54.880Z,9.92
2019-05-20T00:40:54.873Z,9.92
2019-05-20T00:41:54.856Z,9.92
2019-05-20T00:42:54.872Z,9.89
2019-05-20T00:43:54.832Z,9.89
2019-05-20T00:44:54.816Z,9.91
2019-05-20T00:45:54.826Z,9.91
2019-05-20T00:46:54.801Z,9.91
2019-05-20T00:47:54.794Z,9.94
2019-05-20T00:48:54.793Z,9.92
2019-05-20T00:49:54.763Z,9.94
2019-05-20T00:50:54.763Z,9.91
2019-05-20T00:51:54.753Z,9.92
2019-05-20T00:52:54.731Z,9.94
2019-05-20T00:53:54.785Z,9.91
2019-05-20T00:54:54.734Z,9.87
2019-05-20T00:55:54.711Z,9.84
2019-05-20T00:56:54.689Z,9.80
2019-05-20T00:57:54.704Z,9.82
2019-05-20T00:58:54.674Z,9.84
2019-05-20T00:59:54.674Z,9.86
2019-05-20T01:00:54.674Z,9.86
2019-05-20T01:01:54.644Z,9.84
2019-05-20T01:02:57.232Z,9.86
2019-05-20T01:03:54.611Z,9.89
2019-05-20T01:04:54.621Z,9.91
2019-05-20T01:05:54.630Z,9.89
2019-05-20T01:06:54.605Z,9.83
2019-05-20T01:07:54.574Z,9.82
2019-05-20T01:08:54.575Z,9.82
2019-05-20T01:09:54.560Z,9.82
2019-05-20T01:10:54.537Z,9.82
2019-05-20T01:11:54.552Z,9.92
2019-05-20T01:12:54.512Z,10.02
2019-05-20T01:13:54.509Z,10.15
2019-05-20T01:14:54.502Z,10.26
2019-05-20T01:15:54.492Z,10.30
2019-05-20T01:16:54.511Z,10.33
2019-05-20T01:17:54.463Z,10.33
2019-05-20T01:18:54.463Z,10.28
2019-05-20T01:19:54.454Z,10.20
2019-05-20T01:20:54.430Z,10.20
2019-05-20T01:21:54.434Z,10.19
2019-05-20T01:22:54.430Z,10.26
2019-05-20T01:23:54.400Z,10.28
2019-05-20T01:24:54.422Z,10.33
2019-05-20T01:25:54.381Z,10.33
2019-05-20T01:26:54.391Z,10.37
2019-05-20T01:27:54.359Z,10.40
2019-05-20T01:28:54.347Z,10.42
2019-05-20T01:29:54.341Z,10.44
2019-05-20T01:30:54.351Z,10.42
2019-05-20T01:31:54.355Z,10.42
2019-05-20T01:32:54.302Z,10.42
2019-05-20T01:33:54.290Z,10.38
2019-05-20T01:34:54.279Z,10.34
2019-05-20T01:35:54.268Z,10.30
2019-05-20T01:36:54.270Z,10.26
2019-05-20T01:37:54.278Z,10.25
2019-05-20T01:38:54.251Z,10.26
2019-05-20T01:39:54.252Z,10.28
2019-05-20T01:40:54.218Z,10.31
2019-05-20T01:41:54.199Z,10.41
2019-05-20T01:42:54.196Z,10.46
2019-05-20T01:43:54.239Z,10.49
2019-05-20T01:44:54.180Z,10.49
2019-05-20T01:45:54.160Z,10.46
2019-05-20T01:46:54.165Z,10.46
2019-05-20T01:47:54.171Z,10.49
2019-05-20T01:48:54.142Z,10.53
2019-05-20T01:49:54.153Z,10.54
2019-05-20T01:50:54.132Z,10.57
2019-05-20T01:51:54.098Z,10.56
2019-05-20T01:52:54.112Z,10.53
2019-05-20T01:53:54.090Z,10.46
2019-05-20T01:54:54.068Z,10.42
2019-05-20T01:55:54.061Z,10.35
2019-05-20T01:56:54.037Z,10.31
2019-05-20T01:57:54.060Z,10.28
2019-05-20T01:58:54.027Z,10.22
2019-05-20T01:59:54.015Z,10.16
2019-05-20T02:00:54.036Z,10.15
2019-05-20T02:01:53.999Z,10.15
2019-05-20T02:02:53.982Z,10.20
2019-05-20T02:03:53.993Z,10.30
2019-05-20T02:04:53.949Z,10.34
2019-05-20T02:05:53.964Z,10.44
2019-05-20T02:06:53.959Z,10.48
2019-05-20T02:07:53.933Z,10.49
2019-05-20T02:08:53.972Z,10.48
2019-05-20T02:09:53.906Z,10.51
2019-05-20T02:10:56.583Z,10.54
2019-05-20T02:11:53.887Z,10.57
2019-05-20T02:12:53.878Z,10.56
2019-05-20T02:13:53.886Z,10.53
2019-05-20T02:14:53.860Z,10.48
2019-05-20T02:15:53.849Z,10.41
2019-05-20T02:16:53.826Z,10.37
2019-05-20T02:17:53.827Z,10.48
2019-05-20T02:18:53.807Z,10.54
2019-05-20T02:19:53.807Z,10.53
2019-05-20T02:20:53.801Z,10.53
2019-05-20T02:21:53.779Z,10.49
2019-05-20T02:22:53.769Z,10.46
2019-05-20T02:23:53.770Z,10.41
2019-05-20T02:24:53.757Z,10.34
2019-05-20T02:25:53.760Z,10.31
2019-05-20T02:26:53.720Z,10.26
2019-05-20T02:27:53.720Z,10.23
2019-05-20T02:28:53.697Z,10.25
2019-05-20T02:29:53.701Z,10.30
2019-05-20T02:30:56.803Z,10.31
2019-05-20T02:31:53.691Z,10.37
2019-05-20T02:32:53.669Z,10.48
2019-05-20T02:33:53.656Z,10.51
2019-05-20T02:34:53.659Z,10.53
2019-05-20T02:35:53.631Z,10.46
2019-05-20T02:36:53.606Z,10.48
2019-05-20T02:37:53.604Z,10.53
2019-05-20T02:38:53.594Z,10.61
2019-05-20T02:39:53.614Z,10.64
2019-05-20T02:40:53.588Z,10.64
2019-05-20T02:41:53.560Z,10.69
2019-05-20T02:42:53.638Z,10.71
2019-05-20T02:43:53.542Z,10.68
2019-05-20T02:44:53.547Z,10.68
2019-05-20T02:45:53.542Z,10.72
2019-05-20T02:46:53.507Z,10.74
2019-05-20T02:47:53.495Z,10.71
2019-05-20T02:48:53.482Z,10.72
2019-05-20T02:49:53.488Z,10.76
2019-05-20T02:50:53.492Z,10.78
2019-05-20T02:51:53.456Z,10.78
2019-05-20T02:52:53.459Z,10.76
2019-05-20T02:53:53.436Z,10.72
2019-05-20T02:54:53.414Z,10.71
2019-05-20T02:55:53.404Z,10.72
2019-05-20T02:56:53.418Z,10.74
2019-05-20T02:57:53.398Z,10.69
2019-05-20T02:58:53.377Z,10.71
2019-05-20T02:59:53.371Z,10.75
2019-05-20T03:00:53.358Z,10.75
2019-05-20T03:01:53.385Z,10.72
2019-05-20T03:02:53.366Z,10.72
2019-05-20T03:04:09.836Z,10.74
2019-05-20T03:04:54.315Z,10.74
2019-05-20T03:05:53.309Z,10.74
2019-05-20T03:06:53.298Z,10.72
2019-05-20T03:07:53.276Z,10.76
2019-05-20T03:08:53.295Z,10.78
2019-05-20T03:09:53.267Z,10.78
2019-05-20T03:10:53.254Z,10.79
2019-05-20T03:11:53.245Z,10.78
2019-05-20T03:12:53.248Z,10.79
2019-05-20T03:13:53.205Z,10.79
2019-05-20T03:14:53.227Z,10.78
2019-05-20T03:15:53.198Z,10.78
2019-05-20T03:16:53.178Z,10.79
2019-05-20T03:17:53.165Z,10.82
2019-05-20T03:18:53.167Z,10.81
2019-05-20T03:19:53.178Z,10.87
2019-05-20T03:20:53.138Z,10.90
2019-05-20T03:21:53.118Z,10.93
2019-05-20T03:22:53.117Z,10.97
2019-05-20T03:23:53.130Z,11.00
2019-05-20T03:24:53.096Z,11.04
2019-05-20T03:25:53.104Z,11.05
2019-05-20T03:26:53.082Z,11.08
2019-05-20T03:27:53.058Z,11.11
2019-05-20T03:28:53.062Z,11.12
2019-05-20T03:29:53.054Z,11.14
2019-05-20T03:30:53.086Z,11.17
2019-05-20T03:31:53.028Z,11.19
2019-05-20T03:32:53.006Z,11.22
2019-05-20T03:33:53.608Z,11.26
2019-05-20T03:34:59.988Z,11.26
2019-05-20T03:35:53.998Z,11.29
2019-05-20T03:36:52.977Z,11.32
2019-05-20T03:37:53.014Z,11.33
2019-05-20T03:38:52.974Z,11.36
2019-05-20T03:39:52.933Z,11.37
2019-05-20T03:40:52.938Z,11.41
2019-05-20T03:41:52.903Z,11.43
2019-05-20T03:42:53.181Z,11.44
2019-05-20T03:43:52.969Z,11.45
2019-05-20T03:44:52.886Z,11.47
2019-05-20T03:45:52.907Z,11.48
2019-05-20T03:46:52.874Z,11.48
2019-05-20T03:47:52.864Z,11.50
2019-05-20T03:48:52.885Z,11.51
2019-05-20T03:49:52.844Z,11.51
2019-05-20T03:50:52.828Z,11.52
2019-05-20T03:51:52.802Z,11.54
2019-05-20T03:52:52.823Z,11.52
2019-05-20T03:53:52.803Z,11.55
2019-05-20T03:54:52.784Z,11.55
2019-05-20T03:55:52.752Z,11.57
2019-05-20T03:56:52.769Z,11.57
2019-05-20T03:57:52.744Z,11.59
2019-05-20T03:58:52.757Z,11.59
2019-05-20T03:59:52.741Z,11.59
2019-05-20T04:00:52.809Z,11.60
2019-05-20T04:01:52.725Z,11.59
2019-05-20T04:02:52.679Z,11.60
2019-05-20T04:03:52.695Z,11.62
2019-05-20T04:05:02.525Z,11.62
2019-05-20T04:05:53.688Z,11.63
2019-05-20T04:06:52.668Z,11.63
2019-05-20T04:07:52.632Z,11.65
2019-05-20T04:08:52.624Z,11.65
2019-05-20T04:09:52.609Z,11.65
2019-05-20T04:10:52.641Z,11.66
2019-05-20T04:11:52.619Z,11.66
2019-05-20T04:12:52.569Z,11.68
2019-05-20T04:13:52.640Z,11.65
2019-05-20T04:14:52.567Z,11.65
2019-05-20T04:15:52.550Z,11.68
2019-05-20T04:16:52.569Z,11.66
2019-05-20T04:17:52.510Z,11.68
2019-05-20T04:18:54.135Z,11.69
2019-05-20T04:19:52.505Z,11.68
2019-05-20T04:20:52.483Z,11.69
2019-05-20T04:21:52.491Z,11.70
2019-05-20T04:22:52.459Z,11.70
2019-05-20T04:23:52.459Z,11.72
2019-05-20T04:24:52.443Z,11.73
2019-05-20T04:25:52.461Z,11.73
2019-05-20T04:26:52.499Z,11.75
2019-05-20T04:27:52.437Z,11.75
2019-05-20T04:28:52.422Z,11.75
2019-05-20T04:29:52.398Z,11.77
2019-05-20T04:30:52.403Z,11.77
2019-05-20T04:31:52.383Z,11.78
2019-05-20T04:32:52.359Z,11.78
2019-05-20T04:33:52.378Z,11.80
2019-05-20T04:34:52.356Z,11.80
2019-05-20T04:35:52.339Z,11.81
2019-05-20T04:36:52.309Z,11.80
2019-05-20T04:37:52.334Z,11.81
2019-05-20T04:38:52.611Z,11.80
2019-05-20T04:39:52.310Z,11.81
2019-05-20T04:40:52.286Z,11.84
2019-05-20T04:41:52.260Z,11.81
2019-05-20T04:42:52.241Z,11.83
2019-05-20T04:43:52.251Z,11.83
2019-05-20T04:44:52.277Z,11.83
2019-05-20T04:45:52.221Z,11.84
2019-05-20T04:46:52.250Z,11.84
2019-05-20T04:47:52.190Z,11.86
2019-05-20T04:48:52.218Z,11.87
2019-05-20T04:49:52.198Z,11.88
2019-05-20T04:50:53.052Z,11.90
2019-05-20T04:51:52.438Z,11.90
2019-05-20T04:52:52.266Z,11.90
2019-05-20T04:53:52.137Z,11.91
2019-05-20T04:54:52.111Z,11.91
2019-05-20T04:55:52.233Z,11.90
2019-05-20T04:56:52.097Z,11.94
2019-05-20T04:57:52.157Z,11.94
2019-05-20T04:58:52.720Z,11.95
2019-05-20T04:59:52.557Z,11.99
2019-05-20T05:00:52.086Z,11.99
2019-05-20T05:01:52.049Z,12.00
2019-05-20T05:02:52.086Z,12.00
2019-05-20T05:03:52.037Z,12.02
2019-05-20T05:04:52.038Z,12.02
2019-05-20T05:05:52.071Z,12.03
2019-05-20T05:06:51.999Z,12.02
2019-05-20T05:07:51.990Z,12.04
2019-05-20T05:08:51.957Z,12.04
2019-05-20T05:09:52.009Z,12.04
2019-05-20T05:10:51.951Z,12.06
2019-05-20T05:11:51.971Z,12.09
2019-05-20T05:12:51.942Z,12.10
2019-05-20T05:13:53.126Z,12.12
2019-05-20T05:14:51.914Z,12.13
2019-05-20T05:15:51.908Z,12.15
2019-05-20T05:16:51.878Z,12.17
2019-05-20T05:17:51.909Z,12.17
2019-05-20T05:18:51.867Z,12.20
2019-05-20T05:19:51.853Z,12.20
2019-05-20T05:20:51.843Z,12.20
2019-05-20T05:21:51.862Z,12.22
2019-05-20T05:22:51.816Z,12.22
2019-05-20T05:23:59.200Z,12.24
2019-05-20T05:24:52.794Z,12.25
2019-05-20T05:25:51.785Z,12.25
2019-05-20T05:26:51.776Z,12.27
2019-05-20T05:27:51.767Z,12.28
2019-05-20T05:28:52.845Z,12.29
2019-05-20T05:29:51.744Z,12.35
2019-05-20T05:30:51.735Z,12.32
2019-05-20T05:31:51.727Z,12.36
2019-05-20T05:32:51.706Z,12.36
2019-05-20T05:33:54.330Z,12.36
2019-05-20T05:34:51.756Z,12.37
2019-05-20T05:35:53.522Z,12.40
2019-05-20T05:36:51.669Z,12.40
2019-05-20T05:37:51.876Z,12.43
2019-05-20T05:38:51.670Z,12.45
2019-05-20T05:39:51.652Z,12.46
2019-05-20T05:40:51.678Z,12.49
2019-05-20T05:41:51.671Z,12.49
2019-05-20T05:42:51.616Z,12.49
2019-05-20T05:43:51.639Z,12.50
2019-05-20T05:44:51.588Z,12.50
2019-05-20T05:45:51.663Z,12.50
2019-05-20T05:46:51.564Z,12.50
2019-05-20T05:47:51.567Z,12.53
2019-05-20T05:48:51.548Z,12.53
2019-05-20T05:49:51.657Z,12.53
2019-05-20T05:50:51.544Z,12.53
2019-05-20T05:51:51.495Z,12.53
2019-05-20T05:52:51.560Z,12.55
2019-05-20T05:53:51.531Z,12.55
2019-05-20T05:54:51.479Z,12.57
2019-05-20T05:55:51.469Z,12.58
2019-05-20T05:56:51.483Z,12.61
2019-05-20T05:57:51.455Z,12.64
2019-05-20T05:58:51.499Z,12.62
2019-05-20T05:59:51.415Z,12.65
2019-05-20T06:00:51.417Z,12.64
2019-05-20T06:01:51.388Z,12.65
2019-05-20T06:02:51.503Z,12.65
2019-05-20T06:03:51.532Z,12.70
2019-05-20T06:04:51.378Z,12.72
2019-05-20T06:05:51.378Z,12.75
2019-05-20T06:06:51.347Z,12.75
2019-05-20T06:07:51.336Z,12.75
2019-05-20T06:08:51.351Z,12.76
2019-05-20T06:09:51.331Z,12.76
2019-05-20T06:10:51.297Z,12.79
2019-05-20T06:11:51.284Z,12.76
2019-05-20T06:12:51.296Z,12.76
2019-05-20T06:13:51.275Z,12.78
2019-05-20T06:14:51.309Z,12.80
2019-05-20T06:15:54.163Z,12.80
2019-05-20T06:16:51.234Z,12.80
2019-05-20T06:17:51.215Z,12.82
2019-05-20T06:18:51.212Z,12.82
2019-05-20T06:19:51.196Z,12.85
2019-05-20T06:20:51.215Z,12.87
2019-05-20T06:21:51.182Z,12.87
2019-05-20T06:22:51.164Z,12.87
2019-05-20T06:23:51.167Z,12.91
2019-05-20T06:24:51.724Z,12.93
2019-05-20T06:25:51.136Z,12.94
2019-05-20T06:26:51.147Z,12.97
2019-05-20T06:27:51.114Z,12.97
2019-05-20T06:28:51.093Z,12.93
2019-05-20T06:29:52.253Z,12.93
2019-05-20T06:30:51.086Z,12.91
2019-05-20T06:31:51.055Z,12.94
2019-05-20T06:32:51.092Z,12.97
2019-05-20T06:33:51.071Z,13.00
2019-05-20T06:34:51.036Z,13.04
2019-05-20T06:35:51.021Z,13.03
2019-05-20T06:36:51.028Z,13.03
2019-05-20T06:37:51.026Z,13.05
2019-05-20T06:38:50.984Z,13.08
2019-05-20T06:39:51.373Z,13.09
2019-05-20T06:40:50.982Z,13.11
2019-05-20T06:41:50.945Z,13.12
2019-05-20T06:42:51.021Z,13.12
2019-05-20T06:43:50.949Z,13.11
2019-05-20T06:44:53.968Z,13.09
2019-05-20T06:45:51.920Z,13.08
2019-05-20T06:46:50.938Z,13.12
2019-05-20T06:47:50.919Z,13.15
2019-05-20T06:48:50.991Z,13.16
2019-05-20T06:49:50.870Z,13.20
2019-05-20T06:50:50.874Z,13.23
2019-05-20T06:51:50.860Z,13.27
2019-05-20T06:52:51.113Z,13.28
2019-05-20T06:53:50.834Z,13.31
2019-05-20T06:54:50.824Z,13.39
2019-05-20T06:55:50.805Z,13.46
2019-05-20T06:56:50.845Z,13.52
2019-05-20T06:57:50.801Z,13.57
2019-05-20T06:58:50.867Z,13.62
2019-05-20T06:59:50.803Z,13.62
2019-05-20T07:00:50.767Z,13.60
2019-05-20T07:01:50.760Z,13.63
2019-05-20T07:02:52.194Z,13.67
2019-05-20T07:03:50.761Z,13.71
2019-05-20T07:04:50.759Z,13.74
2019-05-20T07:05:50.694Z,13.75
2019-05-20T07:06:50.691Z,13.77
2019-05-20T07:07:50.691Z,13.71
2019-05-20T07:08:50.681Z,13.74
2019-05-20T07:09:50.673Z,13.72
2019-05-20T07:10:50.662Z,13.72
2019-05-20T07:11:53.117Z,13.75
2019-05-20T07:12:50.631Z,13.77
2019-05-20T07:13:50.684Z,13.79
2019-05-20T07:14:50.611Z,13.83
2019-05-20T07:15:50.581Z,13.87
2019-05-20T07:16:50.587Z,13.89
2019-05-20T07:17:50.581Z,13.93
2019-05-20T07:18:50.607Z,13.89
2019-05-20T07:19:50.563Z,13.87
2019-05-20T07:20:50.529Z,13.87
2019-05-20T07:21:50.533Z,13.93
2019-05-20T07:22:56.000Z,13.93
2019-05-20T07:23:52.499Z,13.96
2019-05-20T07:24:50.547Z,13.97
2019-05-20T07:25:50.485Z,14.03
2019-05-20T07:26:50.497Z,14.08
2019-05-20T07:27:50.467Z,14.05
2019-05-20T07:28:50.469Z,14.04
2019-05-20T07:29:50.485Z,14.05
2019-05-20T07:30:50.418Z,14.10
2019-05-20T07:31:50.425Z,14.15
2019-05-20T07:32:50.431Z,14.18
2019-05-20T07:33:50.387Z,14.20
2019-05-20T07:34:50.404Z,14.18
2019-05-20T07:35:50.385Z,14.17
2019-05-20T07:37:02.492Z,14.18
2019-05-20T07:37:51.357Z,14.18
2019-05-20T07:38:50.364Z,14.25
2019-05-20T07:39:50.343Z,14.29
2019-05-20T07:40:50.448Z,14.28
2019-05-20T07:41:50.359Z,14.32
2019-05-20T07:42:50.296Z,14.33
2019-05-20T07:43:50.288Z,14.35
2019-05-20T07:44:50.285Z,14.37
2019-05-20T07:45:50.261Z,14.35
2019-05-20T07:46:50.294Z,14.37
2019-05-20T07:47:50.244Z,14.43
2019-05-20T07:48:50.339Z,14.47
2019-05-20T07:49:50.222Z,14.53
2019-05-20T07:50:50.235Z,14.55
2019-05-20T07:51:50.223Z,14.59
2019-05-20T07:52:50.193Z,14.60
2019-05-20T07:53:50.207Z,14.63
2019-05-20T07:54:50.167Z,14.69
2019-05-20T07:55:50.152Z,14.77
2019-05-20T07:56:50.154Z,14.78
2019-05-20T07:57:50.142Z,14.81
2019-05-20T07:58:50.123Z,14.82
2019-05-20T07:59:50.124Z,14.85
2019-05-20T08:00:50.101Z,14.82
2019-05-20T08:01:50.584Z,14.91
2019-05-20T08:02:50.158Z,15.00
2019-05-20T08:03:50.082Z,15.06
2019-05-20T08:04:50.080Z,15.09
2019-05-20T08:05:50.105Z,15.15
2019-05-20T08:06:50.125Z,15.15
2019-05-20T08:07:52.391Z,15.19
2019-05-20T08:08:50.033Z,15.18
2019-05-20T08:09:50.038Z,15.15
2019-05-20T08:10:49.992Z,15.22
2019-05-20T08:11:49.982Z,15.29
2019-05-20T08:12:49.998Z,15.35
2019-05-20T08:13:50.001Z,15.39
2019-05-20T08:14:49.993Z,15.37
2019-05-20T08:15:49.961Z,15.44
2019-05-20T08:16:50.023Z,15.49
2019-05-20T08:17:50.007Z,15.55
2019-05-20T08:18:49.967Z,15.62
2019-05-20T08:19:49.887Z,15.64
2019-05-20T08:20:49.899Z,15.64
2019-05-20T08:21:49.894Z,15.65
2019-05-20T08:22:49.908Z,15.67
2019-05-20T08:23:50.395Z,15.75
2019-05-20T08:24:49.862Z,15.75
2019-05-20T08:25:49.879Z,15.72
2019-05-20T08:26:49.836Z,15.72
2019-05-20T08:27:49.812Z,15.70
2019-05-20T08:28:49.855Z,15.70
2019-05-20T08:29:49.815Z,15.70
2019-05-20T08:30:49.779Z,15.73
2019-05-20T08:31:49.773Z,15.76
2019-05-20T08:32:49.750Z,15.80
2019-05-20T08:33:49.753Z,15.82
2019-05-20T08:34:49.736Z,15.80
2019-05-20T08:35:49.762Z,15.77
2019-05-20T08:36:49.721Z,15.79
2019-05-20T08:37:49.711Z,15.73
2019-05-20T08:38:49.703Z,15.68
2019-05-20T08:39:49.683Z,15.67
2019-05-20T08:40:49.695Z,15.67
2019-05-20T08:41:49.663Z,15.58
2019-05-20T08:42:49.654Z,15.55
2019-05-20T08:43:49.662Z,15.54
2019-05-20T08:44:49.635Z,15.52
2019-05-20T08:45:49.649Z,15.55
2019-05-20T08:46:49.870Z,15.55
2019-05-20T08:47:49.614Z,15.55
2019-05-20T08:48:49.599Z,15.61
2019-05-20T08:49:50.648Z,15.57
2019-05-20T08:50:49.564Z,15.57
2019-05-20T08:51:49.565Z,15.57
2019-05-20T08:52:49.591Z,15.61
2019-05-20T08:53:49.537Z,15.61
2019-05-20T08:54:49.529Z,15.58
2019-05-20T08:55:49.537Z,15.59
2019-05-20T08:56:49.557Z,15.58
2019-05-20T08:57:49.485Z,15.58
2019-05-20T08:58:49.549Z,15.64
2019-05-20T08:59:50.431Z,15.59
2019-05-20T09:00:49.465Z,15.61
2019-05-20T09:01:49.434Z,15.61
2019-05-20T09:02:49.434Z,15.61
2019-05-20T09:03:49.436Z,15.58
2019-05-20T09:04:50.151Z,15.49
2019-05-20T09:05:49.404Z,15.44
2019-05-20T09:06:49.431Z,15.43
2019-05-20T09:08:02.235Z,15.40
2019-05-20T09:08:50.380Z,15.37
2019-05-20T09:09:49.368Z,15.39
2019-05-20T09:10:49.352Z,15.43
2019-05-20T09:11:49.341Z,15.47
2019-05-20T09:12:49.370Z,15.47
2019-05-20T09:13:49.405Z,15.44
2019-05-20T09:14:49.323Z,15.43
2019-05-20T09:15:49.295Z,15.43
2019-05-20T09:16:49.301Z,15.47
2019-05-20T09:17:49.331Z,15.51
2019-05-20T09:18:50.422Z,15.52
2019-05-20T09:19:49.262Z,15.52
2019-05-20T09:20:49.232Z,15.54
2019-05-20T09:21:49.223Z,15.54
2019-05-20T09:22:49.272Z,15.54
2019-05-20T09:23:49.292Z,15.49
2019-05-20T09:24:49.513Z,15.43
2019-05-20T09:25:49.190Z,15.44
2019-05-20T09:26:49.160Z,15.47
2019-05-20T09:27:49.175Z,15.44
2019-05-20T09:28:49.143Z,15.47
2019-05-20T09:29:49.183Z,15.46
2019-05-20T09:30:49.276Z,15.43
2019-05-20T09:31:49.144Z,15.43
2019-05-20T09:32:49.145Z,15.42
2019-05-20T09:33:49.113Z,15.40
2019-05-20T09:34:49.086Z,15.40
2019-05-20T09:35:49.136Z,15.37
2019-05-20T09:36:49.080Z,15.40
2019-05-20T09:37:49.165Z,15.42
2019-05-20T09:38:49.036Z,15.39
2019-05-20T09:39:49.031Z,15.42
2019-05-20T09:40:49.042Z,15.46
2019-05-20T09:41:49.026Z,15.47
2019-05-20T09:42:49.037Z,15.52
2019-05-20T09:43:48.997Z,15.55
2019-05-20T09:44:48.987Z,15.58
2019-05-20T09:46:05.515Z,15.62
2019-05-20T09:46:49.966Z,15.62
2019-05-20T09:47:48.954Z,15.61
2019-05-20T09:48:48.927Z,15.59
2019-05-20T09:49:48.930Z,15.57
2019-05-20T09:50:48.910Z,15.58
2019-05-20T09:51:48.934Z,15.61
2019-05-20T09:52:48.890Z,15.62
2019-05-20T09:53:48.922Z,15.61
2019-05-20T09:54:49.052Z,15.61
2019-05-20T09:55:48.865Z,15.64
2019-05-20T09:56:48.841Z,15.67
2019-05-20T09:57:48.860Z,15.68
2019-05-20T09:58:48.841Z,15.76
2019-05-20T09:59:48.813Z,15.79
2019-05-20T10:00:48.813Z,15.79
2019-05-20T10:01:49.867Z,15.77
2019-05-20T10:02:48.771Z,15.79
2019-05-20T10:03:48.803Z,15.73
2019-05-20T10:04:48.760Z,15.77
2019-05-20T10:05:48.766Z,15.82
2019-05-20T10:06:48.765Z,15.84
2019-05-20T10:07:48.736Z,15.91
2019-05-20T10:08:48.724Z,15.94
2019-05-20T10:09:48.714Z,16.00
2019-05-20T10:10:48.726Z,15.98
2019-05-20T10:11:48.692Z,15.97
2019-05-20T10:12:48.684Z,16.00
2019-05-20T10:13:48.733Z,16.02
2019-05-20T10:14:52.534Z,16.02
2019-05-20T10:15:48.666Z,16.05
2019-05-20T10:16:48.737Z,16.04
2019-05-20T10:17:48.636Z,16.05
2019-05-20T10:18:48.825Z,16.01
2019-05-20T10:19:48.614Z,16.02
2019-05-20T10:20:48.604Z,15.98
2019-05-20T10:21:48.614Z,16.08
2019-05-20T10:22:48.602Z,16.15
2019-05-20T10:23:48.564Z,16.15
2019-05-20T10:24:48.541Z,16.17
2019-05-20T10:25:48.535Z,16.23
2019-05-20T10:26:48.535Z,16.24
2019-05-20T10:27:48.513Z,16.26
2019-05-20T10:28:48.493Z,16.20
2019-05-20T10:29:48.493Z,16.17
2019-05-20T10:30:48.484Z,16.23
2019-05-20T10:31:48.520Z,16.35
2019-05-20T10:32:48.476Z,16.42
2019-05-20T10:33:48.459Z,16.43
2019-05-20T10:34:48.433Z,16.35
2019-05-20T10:35:48.432Z,16.31
2019-05-20T10:36:48.422Z,16.29
2019-05-20T10:37:48.435Z,16.31
2019-05-20T10:38:58.767Z,16.32
2019-05-20T10:39:49.382Z,16.42
2019-05-20T10:40:48.385Z,16.41
2019-05-20T10:41:48.376Z,16.43
2019-05-20T10:42:48.358Z,16.47
2019-05-20T10:43:48.342Z,16.47
2019-05-20T10:44:48.356Z,16.49
2019-05-20T10:45:48.303Z,16.54
2019-05-20T10:46:48.331Z,16.51
2019-05-20T10:47:48.294Z,16.57
2019-05-20T10:48:48.290Z,16.56
2019-05-20T10:49:48.298Z,16.61
2019-05-20T10:50:48.286Z,16.64
2019-05-20T10:51:48.259Z,16.57
2019-05-20T10:52:48.240Z,16.61
2019-05-20T10:53:48.233Z,16.66
2019-05-20T10:54:48.216Z,16.61
2019-05-20T10:55:48.239Z,16.60
2019-05-20T10:56:48.215Z,16.60
2019-05-20T10:57:48.184Z,16.57
2019-05-20T10:58:48.169Z,16.60
2019-05-20T10:59:48.170Z,16.57
2019-05-20T11:01:01.719Z,16.60
2019-05-20T11:01:49.155Z,16.66
2019-05-20T11:02:48.153Z,16.76
2019-05-20T11:03:48.124Z,16.84
2019-05-20T11:04:48.162Z,16.89
2019-05-20T11:05:48.116Z,16.90
2019-05-20T11:06:48.083Z,16.93
2019-05-20T11:07:48.149Z,16.89
2019-05-20T11:08:48.072Z,16.89
2019-05-20T11:09:48.062Z,16.86
2019-05-20T11:10:48.141Z,16.90
2019-05-20T11:11:48.071Z,16.90
2019-05-20T11:12:48.055Z,16.91
2019-05-20T11:13:48.017Z,16.93
2019-05-20T11:14:48.036Z,16.99
2019-05-20T11:15:48.105Z,17.01
2019-05-20T11:16:48.008Z,16.89
2019-05-20T11:17:47.999Z,16.99
2019-05-20T11:18:47.956Z,17.08
2019-05-20T11:19:47.968Z,17.09
2019-05-20T11:20:47.947Z,17.14
2019-05-20T11:21:47.937Z,17.20
2019-05-20T11:22:47.923Z,17.22
2019-05-20T11:23:47.937Z,17.23
2019-05-20T11:24:47.912Z,17.20
2019-05-20T11:25:47.887Z,17.12
2019-05-20T11:26:47.935Z,17.14
2019-05-20T11:27:47.926Z,17.09
2019-05-20T11:28:47.862Z,17.09
2019-05-20T11:29:47.856Z,17.09
2019-05-20T11:30:47.857Z,17.06
2019-05-20T11:31:47.823Z,16.96
2019-05-20T11:32:47.804Z,16.86
2019-05-20T11:33:47.832Z,16.71
2019-05-20T11:34:47.927Z,16.72
2019-05-20T11:35:47.784Z,16.76
2019-05-20T11:36:47.768Z,16.83
2019-05-20T11:37:47.758Z,16.90
2019-05-20T11:38:47.745Z,16.87
2019-05-20T11:39:47.758Z,16.94
2019-05-20T11:40:47.739Z,16.94
2019-05-20T11:41:53.256Z,16.96
2019-05-20T11:42:48.702Z,17.01
2019-05-20T11:43:47.716Z,16.94
2019-05-20T11:44:47.762Z,16.97
2019-05-20T11:45:47.724Z,16.99
2019-05-20T11:46:47.659Z,16.99
2019-05-20T11:47:47.659Z,17.01
2019-05-20T11:48:47.641Z,17.02
2019-05-20T11:49:47.624Z,17.04
2019-05-20T11:50:47.635Z,17.06
2019-05-20T11:51:47.687Z,17.16
2019-05-20T11:52:47.651Z,17.23
2019-05-20T11:53:47.594Z,17.20
2019-05-20T11:54:47.680Z,17.23
2019-05-20T11:55:47.565Z,17.23
2019-05-20T11:56:47.556Z,17.19
2019-05-20T11:57:47.572Z,17.15
2019-05-20T11:58:47.575Z,17.12
2019-05-20T11:59:47.568Z,17.12
2019-05-20T12:00:48.205Z,17.16
2019-05-20T12:01:47.517Z,17.19
2019-05-20T12:02:47.492Z,17.20
2019-05-20T12:03:47.478Z,17.20
2019-05-20T12:04:47.628Z,17.22
2019-05-20T12:05:47.498Z,17.20
2019-05-20T12:06:47.453Z,17.22
2019-05-20T12:07:47.428Z,17.26
2019-05-20T12:08:47.437Z,17.31
2019-05-20T12:09:50.016Z,17.38
2019-05-20T12:10:47.416Z,17.44
2019-05-20T12:11:47.412Z,17.41
2019-05-20T12:12:47.386Z,17.42
2019-05-20T12:13:47.378Z,17.46
2019-05-20T12:14:47.492Z,17.52
2019-05-20T12:15:47.344Z,17.59
2019-05-20T12:16:47.358Z,17.70
2019-05-20T12:17:47.350Z,17.78
2019-05-20T12:18:47.340Z,17.79
2019-05-20T12:19:47.335Z,17.79
2019-05-20T12:20:47.308Z,17.83
2019-05-20T12:21:47.323Z,17.78
2019-05-20T12:22:47.345Z,17.74
2019-05-20T12:23:47.268Z,17.72
2019-05-20T12:24:47.282Z,17.65
2019-05-20T12:25:47.275Z,17.67
2019-05-20T12:26:47.242Z,17.68
2019-05-20T12:27:47.217Z,17.74
2019-05-20T12:28:47.216Z,17.74
2019-05-20T12:29:47.200Z,17.83
2019-05-20T12:30:47.270Z,17.79
2019-05-20T12:31:47.187Z,17.82
2019-05-20T12:32:47.184Z,17.78
2019-05-20T12:33:47.154Z,17.70
2019-05-20T12:34:47.201Z,17.70
2019-05-20T12:35:47.158Z,17.67
2019-05-20T12:36:47.128Z,17.65
2019-05-20T12:37:47.122Z,17.72
2019-05-20T12:38:47.109Z,17.76
2019-05-20T12:39:47.117Z,17.74
2019-05-20T12:40:47.099Z,17.70
2019-05-20T12:41:47.084Z,17.71
2019-05-20T12:42:47.057Z,17.74
2019-05-20T12:43:47.065Z,17.71
2019-05-20T12:44:47.077Z,17.76
2019-05-20T12:45:47.049Z,17.71
2019-05-20T12:46:47.037Z,17.76
2019-05-20T12:47:47.013Z,17.85
2019-05-20T12:48:47.084Z,17.89
2019-05-20T12:49:47.005Z,17.95
2019-05-20T12:50:47.008Z,18.00
2019-05-20T12:51:47.033Z,18.11
2019-05-20T12:52:46.968Z,18.20
2019-05-20T12:53:46.978Z,18.25